sensor_id;sensor_type;location;lat;lon;timestamp;pressure;altitude;pressure_sealevel;temperature;humidity
11971;BME280;6045;42.682;23.294;2023-05-31T00:01:43;94708.50;;;18.02;79.47
11971;BME280;6045;42.682;23.294;2023-05-31T00:04:10;94707.44;;;18.03;79.38
11971;BME280;6045;42.682;23.294;2023-05-31T00:09:05;94708.25;;;18.03;79.74
11971;BME280;6045;42.682;23.294;2023-05-31T00:11:36;94706.34;;;18.09;79.70
11971;BME280;6045;42.682;23.294;2023-05-31T00:14:03;94710.94;;;18.13;79.74
11971;BME280;6045;42.682;23.294;2023-05-31T00:16:31;94709.31;;;18.17;80.01
11971;BME280;6045;42.682;23.294;2023-05-31T00:18:59;94706.84;;;18.21;79.31
11971;BME280;6045;42.682;23.294;2023-05-31T00:21:26;94709.53;;;18.21;78.99
11971;BME280;6045;42.682;23.294;2023-05-31T00:23:53;94712.81;;;18.18;78.83
11971;BME280;6045;42.682;23.294;2023-05-31T00:26:23;94713.34;;;18.20;79.90
11971;BME280;6045;42.682;23.294;2023-05-31T00:28:50;94713.88;;;18.22;79.83
11971;BME280;6045;42.682;23.294;2023-05-31T00:31:19;94707.38;;;18.28;80.06
11971;BME280;6045;42.682;23.294;2023-05-31T00:33:46;94713.88;;;18.32;79.70
11971;BME280;6045;42.682;23.294;2023-05-31T00:36:14;94697.63;;;18.32;79.83
11971;BME280;6045;42.682;23.294;2023-05-31T00:38:42;94713.56;;;18.33;79.49
11971;BME280;6045;42.682;23.294;2023-05-31T00:41:10;94713.03;;;18.36;79.62
11971;BME280;6045;42.682;23.294;2023-05-31T00:43:40;94706.53;;;18.37;79.24
11971;BME280;6045;42.682;23.294;2023-05-31T00:46:11;94710.88;;;18.33;79.40
11971;BME280;6045;42.682;23.294;2023-05-31T00:48:41;94711.41;;;18.30;79.90
11971;BME280;6045;42.682;23.294;2023-05-31T00:53:54;94717.94;;;18.29;80.06
11971;BME280;6045;42.682;23.294;2023-05-31T00:56:26;94720.13;;;18.22;80.04
11971;BME280;6045;42.682;23.294;2023-05-31T00:59:00;94717.13;;;18.24;80.05
11971;BME280;6045;42.682;23.294;2023-05-31T01:01:28;94720.09;;;18.27;80.39
11971;BME280;6045;42.682;23.294;2023-05-31T01:03:58;94714.94;;;18.31;80.44
11971;BME280;6045;42.682;23.294;2023-05-31T01:06:27;94717.41;;;18.27;79.96
11971;BME280;6045;42.682;23.294;2023-05-31T01:08:59;94718.19;;;18.28;80.37
11971;BME280;6045;42.682;23.294;2023-05-31T01:11:38;94719.28;;;18.27;80.08
11971;BME280;6045;42.682;23.294;2023-05-31T01:14:29;94713.88;;;18.22;80.16
11971;BME280;6045;42.682;23.294;2023-05-31T01:17:13;94722.00;;;18.17;80.50
11971;BME280;6045;42.682;23.294;2023-05-31T01:19:51;94720.13;;;18.12;80.94
11971;BME280;6045;42.682;23.294;2023-05-31T01:22:26;94721.47;;;18.10;81.10
11971;BME280;6045;42.682;23.294;2023-05-31T01:25:08;94713.13;;;18.01;80.98
11971;BME280;6045;42.682;23.294;2023-05-31T01:27:43;94716.38;;;17.98;81.52
11971;BME280;6045;42.682;23.294;2023-05-31T01:30:13;94713.94;;;17.92;81.84
11971;BME280;6045;42.682;23.294;2023-05-31T01:32:45;94714.78;;;17.92;82.69
11971;BME280;6045;42.682;23.294;2023-05-31T01:35:13;94713.94;;;17.92;81.85
11971;BME280;6045;42.682;23.294;2023-05-31T01:37:41;94713.94;;;17.92;82.43
11971;BME280;6045;42.682;23.294;2023-05-31T01:40:10;94713.13;;;17.86;82.03
11971;BME280;6045;42.682;23.294;2023-05-31T01:42:39;94712.31;;;17.81;82.25
11971;BME280;6045;42.682;23.294;2023-05-31T01:45:10;94720.44;;;17.81;82.67
11971;BME280;6045;42.682;23.294;2023-05-31T01:47:40;94704.50;;;17.79;82.43
11971;BME280;6045;42.682;23.294;2023-05-31T01:50:10;94714.25;;;17.80;82.86
11971;BME280;6045;42.682;23.294;2023-05-31T01:52:55;94718.28;;;17.83;83.45
11971;BME280;6045;42.682;23.294;2023-05-31T01:55:27;94715.03;;;17.91;85.88
11971;BME280;6045;42.682;23.294;2023-05-31T01:57:56;94719.88;;;18.09;88.73
11971;BME280;6045;42.682;23.294;2023-05-31T02:00:26;94714.16;;;18.20;89.55
11971;BME280;6045;42.682;23.294;2023-05-31T02:02:54;94713.56;;;18.33;89.59
11971;BME280;6045;42.682;23.294;2023-05-31T02:05:23;94719.22;;;18.42;89.28
11971;BME280;6045;42.682;23.294;2023-05-31T02:07:51;94714.09;;;18.51;88.29
11971;BME280;6045;42.682;23.294;2023-05-31T02:10:19;94717.56;;;18.61;87.25
11971;BME280;6045;42.682;23.294;2023-05-31T02:12:47;94723.75;;;18.72;86.55
11971;BME280;6045;42.682;23.294;2023-05-31T02:15:16;94732.66;;;18.77;85.87
11971;BME280;6045;42.682;23.294;2023-05-31T02:17:47;94729.13;;;18.82;85.45
11971;BME280;6045;42.682;23.294;2023-05-31T02:20:17;94731.81;;;18.82;84.34
11971;BME280;6045;42.682;23.294;2023-05-31T02:22:45;94723.97;;;18.85;83.91
11971;BME280;6045;42.682;23.294;2023-05-31T02:25:13;94728.00;;;18.93;84.00
11971;BME280;6045;42.682;23.294;2023-05-31T02:27:42;94719.06;;;18.92;83.85
11971;BME280;6045;42.682;23.294;2023-05-31T02:30:10;94724.97;;;18.99;83.34
11971;BME280;6045;42.682;23.294;2023-05-31T02:32:38;94728.75;;;19.03;82.87
11971;BME280;6045;42.682;23.294;2023-05-31T02:35:08;94726.56;;;19.05;82.27
11971;BME280;6045;42.682;23.294;2023-05-31T02:37:38;94724.09;;;19.09;82.50
11971;BME280;6045;42.682;23.294;2023-05-31T02:40:07;94730.34;;;19.09;81.74
11971;BME280;6045;42.682;23.294;2023-05-31T02:42:35;94728.19;;;19.06;81.64
11971;BME280;6045;42.682;23.294;2023-05-31T02:45:03;94730.38;;;19.04;82.13
11971;BME280;6045;42.682;23.294;2023-05-31T02:47:31;94728.75;;;18.98;82.74
11971;BME280;6045;42.682;23.294;2023-05-31T02:50:00;94725.78;;;19.00;82.73
11971;BME280;6045;42.682;23.294;2023-05-31T02:52:29;94725.47;;;19.06;82.14
11971;BME280;6045;42.682;23.294;2023-05-31T02:54:57;94720.03;;;19.11;81.95
11971;BME280;6045;42.682;23.294;2023-05-31T02:57:24;94724.94;;;19.09;81.44
11971;BME280;6045;42.682;23.294;2023-05-31T02:59:55;94732.75;;;19.11;81.43
11971;BME280;6045;42.682;23.294;2023-05-31T03:02:23;94726.53;;;19.10;81.68
11971;BME280;6045;42.682;23.294;2023-05-31T03:04:49;94724.09;;;19.09;81.60
11971;BME280;6045;42.682;23.294;2023-05-31T03:07:18;94733.59;;;19.11;81.87
11971;BME280;6045;42.682;23.294;2023-05-31T03:09:47;94731.41;;;19.13;81.50
11971;BME280;6045;42.682;23.294;2023-05-31T03:12:15;94732.22;;;19.14;81.06
11971;BME280;6045;42.682;23.294;2023-05-31T03:14:43;94733.03;;;19.15;81.02
11971;BME280;6045;42.682;23.294;2023-05-31T03:17:11;94734.63;;;19.16;81.50
11971;BME280;6045;42.682;23.294;2023-05-31T03:19:38;94736.28;;;19.11;81.33
11971;BME280;6045;42.682;23.294;2023-05-31T03:22:06;94735.75;;;19.15;81.50
11971;BME280;6045;42.682;23.294;2023-05-31T03:24:34;94740.34;;;19.14;81.54
11971;BME280;6045;42.682;23.294;2023-05-31T03:27:03;94742.25;;;19.13;81.52
11971;BME280;6045;42.682;23.294;2023-05-31T03:29:32;94737.88;;;19.18;81.17
11971;BME280;6045;42.682;23.294;2023-05-31T03:32:00;94741.91;;;19.20;81.12
11971;BME280;6045;42.682;23.294;2023-05-31T03:34:28;94740.88;;;19.16;81.30
11971;BME280;6045;42.682;23.294;2023-05-31T03:36:56;94742.75;;;19.21;82.14
11971;BME280;6045;42.682;23.294;2023-05-31T03:39:24;94743.78;;;19.25;82.17
11971;BME280;6045;42.682;23.294;2023-05-31T03:41:51;94750.31;;;19.24;81.57
11971;BME280;6045;42.682;23.294;2023-05-31T03:44:22;94745.44;;;19.21;81.47
11971;BME280;6045;42.682;23.294;2023-05-31T03:46:50;94741.69;;;19.17;80.94
11971;BME280;6045;42.682;23.294;2023-05-31T03:49:17;94749.78;;;19.22;80.93
11971;BME280;6045;42.682;23.294;2023-05-31T03:51:45;94753.84;;;19.24;80.52
11971;BME280;6045;42.682;23.294;2023-05-31T03:54:13;94758.47;;;19.19;80.54
11971;BME280;6045;42.682;23.294;2023-05-31T03:56:40;94760.19;;;18.99;81.59
11971;BME280;6045;42.682;23.294;2023-05-31T03:59:08;94761.72;;;19.16;84.02
11971;BME280;6045;42.682;23.294;2023-05-31T04:01:39;94759.22;;;19.29;83.59
11971;BME280;6045;42.682;23.294;2023-05-31T04:04:07;94762.72;;;19.40;82.57
11971;BME280;6045;42.682;23.294;2023-05-31T04:06:34;94757.22;;;19.50;81.66
11971;BME280;6045;42.682;23.294;2023-05-31T04:09:01;94754.22;;;19.51;80.06
11971;BME280;6045;42.682;23.294;2023-05-31T04:11:29;94771.00;;;19.58;78.57
11971;BME280;6045;42.682;23.294;2023-05-31T04:13:57;94764.72;;;19.63;78.12
11971;BME280;6045;42.682;23.294;2023-05-31T04:16:24;94763.06;;;19.67;76.89
11971;BME280;6045;42.682;23.294;2023-05-31T04:18:53;94761.47;;;19.61;77.34
11971;BME280;6045;42.682;23.294;2023-05-31T04:21:21;94761.91;;;19.78;75.81
11971;BME280;6045;42.682;23.294;2023-05-31T04:23:49;94770.00;;;19.83;75.99
11971;BME280;6045;42.682;23.294;2023-05-31T04:26:16;94772.13;;;19.86;75.46
11971;BME280;6045;42.682;23.294;2023-05-31T04:28:44;94768.09;;;19.84;74.68
11971;BME280;6045;42.682;23.294;2023-05-31T04:31:19;94773.44;;;19.94;76.59
11971;BME280;6045;42.682;23.294;2023-05-31T04:33:50;94772.53;;;20.03;77.30
11971;BME280;6045;42.682;23.294;2023-05-31T04:36:42;94787.59;;;20.19;76.97
11971;BME280;6045;42.682;23.294;2023-05-31T04:39:21;94789.41;;;20.34;73.65
11971;BME280;6045;42.682;23.294;2023-05-31T04:41:51;94788.66;;;20.23;71.67
11971;BME280;6045;42.682;23.294;2023-05-31T04:44:32;94792.50;;;20.22;72.49
11971;BME280;6045;42.682;23.294;2023-05-31T04:47:00;94796.53;;;20.25;72.73
11971;BME280;6045;42.682;23.294;2023-05-31T04:49:28;94793.53;;;20.26;72.79
11971;BME280;6045;42.682;23.294;2023-05-31T04:52:18;94791.72;;;20.12;72.13
11971;BME280;6045;42.682;23.294;2023-05-31T04:55:24;94782.22;;;20.14;73.22
11971;BME280;6045;42.682;23.294;2023-05-31T04:57:54;94799.91;;;20.40;72.07
11971;BME280;6045;42.682;23.294;2023-05-31T05:00:36;94799.53;;;20.23;71.43
11971;BME280;6045;42.682;23.294;2023-05-31T05:06:58;94809.06;;;20.50;73.16
11971;BME280;6045;42.682;23.294;2023-05-31T05:09:27;94810.59;;;20.61;71.99
11971;BME280;6045;42.682;23.294;2023-05-31T05:11:55;94804.88;;;20.86;71.59
11971;BME280;6045;42.682;23.294;2023-05-31T05:14:22;94811.75;;;21.02;72.32
11971;BME280;6045;42.682;23.294;2023-05-31T05:16:49;94814.97;;;21.09;70.68
11971;BME280;6045;42.682;23.294;2023-05-31T05:19:20;94819.50;;;20.90;69.93
11971;BME280;6045;42.682;23.294;2023-05-31T05:21:47;94818.56;;;20.76;70.68
11971;BME280;6045;42.682;23.294;2023-05-31T05:24:18;94828.09;;;20.73;69.49
11971;BME280;6045;42.682;23.294;2023-05-31T05:26:47;94828.97;;;20.40;70.59
11971;BME280;6045;42.682;23.294;2023-05-31T05:29:14;94824.50;;;20.25;70.72
11971;BME280;6045;42.682;23.294;2023-05-31T05:32:01;94827.91;;;20.02;71.67
11971;BME280;6045;42.682;23.294;2023-05-31T05:34:45;94833.16;;;19.89;72.68
11971;BME280;6045;42.682;23.294;2023-05-31T05:37:35;94824.88;;;19.70;73.31
11971;BME280;6045;42.682;23.294;2023-05-31T05:40:53;94827.59;;;19.70;73.59
11971;BME280;6045;42.682;23.294;2023-05-31T05:43:55;94833.84;;;19.70;73.55
11971;BME280;6045;42.682;23.294;2023-05-31T05:47:48;94827.16;;;19.48;74.51
11971;BME280;6045;42.682;23.294;2023-05-31T05:57:51;94836.72;;;19.84;75.00
11971;BME280;6045;42.682;23.294;2023-05-31T06:04:10;94835.66;;;19.85;73.79
11971;BME280;6045;42.682;23.294;2023-05-31T06:06:52;94841.81;;;19.91;73.36
11971;BME280;6045;42.682;23.294;2023-05-31T06:13:21;94845.53;;;20.05;74.43
11971;BME280;6045;42.682;23.294;2023-05-31T06:16:32;94837.69;;;19.98;74.83
11971;BME280;6045;42.682;23.294;2023-05-31T06:19:50;94835.31;;;19.92;74.55
11971;BME280;6045;42.682;23.294;2023-05-31T06:22:36;94838.13;;;20.15;74.03
11971;BME280;6045;42.682;23.294;2023-05-31T06:25:30;94836.50;;;20.48;73.29
11971;BME280;6045;42.682;23.294;2023-05-31T06:28:17;94835.38;;;20.78;71.82
11971;BME280;6045;42.682;23.294;2023-05-31T07:20:46;94843.28;;;22.57;62.86
11971;BME280;6045;42.682;23.294;2023-05-31T07:23:13;94847.06;;;22.61;62.53
11971;BME280;6045;42.682;23.294;2023-05-31T07:25:41;94846.19;;;22.79;64.24
11971;BME280;6045;42.682;23.294;2023-05-31T07:28:07;94846.81;;;22.90;62.81
11971;BME280;6045;42.682;23.294;2023-05-31T07:30:35;94842.50;;;23.02;63.11
11971;BME280;6045;42.682;23.294;2023-05-31T07:33:04;94839.88;;;23.25;63.53
11971;BME280;6045;42.682;23.294;2023-05-31T07:35:31;94844.03;;;23.49;63.01
11971;BME280;6045;42.682;23.294;2023-05-31T07:37:59;94837.22;;;23.60;61.29
11971;BME280;6045;42.682;23.294;2023-05-31T07:40:26;94841.22;;;23.41;59.90
11971;BME280;6045;42.682;23.294;2023-05-31T07:42:53;94840.50;;;23.35;61.01
11971;BME280;6045;42.682;23.294;2023-05-31T07:45:20;94838.59;;;23.36;61.12
11971;BME280;6045;42.682;23.294;2023-05-31T07:47:46;94828.75;;;23.48;60.70
11971;BME280;6045;42.682;23.294;2023-05-31T07:50:13;94830.84;;;23.78;60.37
11971;BME280;6045;42.682;23.294;2023-05-31T07:52:40;94829.72;;;23.79;59.44
11971;BME280;6045;42.682;23.294;2023-05-31T07:55:09;94833.19;;;24.07;60.13
11971;BME280;6045;42.682;23.294;2023-05-31T07:57:37;94834.22;;;24.11;57.76
11971;BME280;6045;42.682;23.294;2023-05-31T08:00:05;94838.38;;;24.09;59.51
11971;BME280;6045;42.682;23.294;2023-05-31T08:02:34;94829.03;;;24.23;57.16
11971;BME280;6045;42.682;23.294;2023-05-31T08:05:00;94833.22;;;24.29;59.09
11971;BME280;6045;42.682;23.294;2023-05-31T08:07:29;94828.88;;;24.51;57.02
11971;BME280;6045;42.682;23.294;2023-05-31T08:09:56;94829.75;;;24.60;57.47
11971;BME280;6045;42.682;23.294;2023-05-31T08:12:25;94829.00;;;24.68;57.50
11971;BME280;6045;42.682;23.294;2023-05-31T08:14:52;94824.59;;;24.80;55.60
11971;BME280;6045;42.682;23.294;2023-05-31T08:17:18;94822.44;;;24.46;56.92
11971;BME280;6045;42.682;23.294;2023-05-31T08:19:45;94819.50;;;24.43;56.47
11971;BME280;6045;42.682;23.294;2023-05-31T08:22:12;94829.25;;;24.58;56.21
11971;BME280;6045;42.682;23.294;2023-05-31T08:24:39;94823.16;;;24.83;57.20
11971;BME280;6045;42.682;23.294;2023-05-31T08:27:05;94826.00;;;25.08;56.50
11971;BME280;6045;42.682;23.294;2023-05-31T08:29:34;94826.91;;;25.35;57.84
11971;BME280;6045;42.682;23.294;2023-05-31T08:32:01;94827.72;;;25.35;56.57
11971;BME280;6045;42.682;23.294;2023-05-31T08:34:28;94820.13;;;25.32;58.35
11971;BME280;6045;42.682;23.294;2023-05-31T08:36:55;94822.91;;;25.41;56.41
11971;BME280;6045;42.682;23.294;2023-05-31T08:39:21;94820.47;;;25.31;56.36
11971;BME280;6045;42.682;23.294;2023-05-31T08:41:52;94817.88;;;25.26;56.41
11971;BME280;6045;42.682;23.294;2023-05-31T08:44:20;94811.59;;;25.25;57.00
11971;BME280;6045;42.682;23.294;2023-05-31T08:46:48;94807.75;;;25.35;57.35
11971;BME280;6045;42.682;23.294;2023-05-31T08:49:15;94809.03;;;25.29;57.51
11971;BME280;6045;42.682;23.294;2023-05-31T08:51:44;94805.28;;;25.16;58.34
11971;BME280;6045;42.682;23.294;2023-05-31T08:54:13;94797.00;;;25.38;57.40
11971;BME280;6045;42.682;23.294;2023-05-31T08:56:40;94795.69;;;25.36;55.24
11971;BME280;6045;42.682;23.294;2023-05-31T08:59:09;94793.09;;;25.22;56.65
11971;BME280;6045;42.682;23.294;2023-05-31T09:01:37;94785.50;;;25.19;55.84
11971;BME280;6045;42.682;23.294;2023-05-31T09:04:05;94775.31;;;25.11;55.37
11971;BME280;6045;42.682;23.294;2023-05-31T09:06:32;94781.22;;;24.65;56.34
11971;BME280;6045;42.682;23.294;2023-05-31T09:08:59;94778.84;;;25.03;54.56
11971;BME280;6045;42.682;23.294;2023-05-31T09:11:26;94779.69;;;25.68;51.14
11971;BME280;6045;42.682;23.294;2023-05-31T09:13:54;94767.59;;;26.38;50.83
11971;BME280;6045;42.682;23.294;2023-05-31T09:16:22;94767.25;;;27.11;49.66
11971;BME280;6045;42.682;23.294;2023-05-31T09:18:59;94767.19;;;27.29;50.63
11971;BME280;6045;42.682;23.294;2023-05-31T09:21:29;94760.88;;;27.28;48.66
11971;BME280;6045;42.682;23.294;2023-05-31T09:23:57;94763.50;;;27.25;47.04
11971;BME280;6045;42.682;23.294;2023-05-31T09:26:25;94762.88;;;26.64;48.76
11971;BME280;6045;42.682;23.294;2023-05-31T09:28:53;94754.72;;;26.30;50.87
11971;BME280;6045;42.682;23.294;2023-05-31T09:31:21;94754.16;;;26.71;51.49
11971;BME280;6045;42.682;23.294;2023-05-31T09:33:49;94755.41;;;26.90;48.23
11971;BME280;6045;42.682;23.294;2023-05-31T09:36:23;94764.97;;;26.67;48.43
11971;BME280;6045;42.682;23.294;2023-05-31T09:38:58;94763.91;;;26.34;50.43
11971;BME280;6045;42.682;23.294;2023-05-31T09:41:28;94761.97;;;26.09;51.61
11971;BME280;6045;42.682;23.294;2023-05-31T09:43:54;94771.59;;;25.46;51.75
11971;BME280;6045;42.682;23.294;2023-05-31T09:46:22;94761.25;;;25.43;53.28
11971;BME280;6045;42.682;23.294;2023-05-31T09:48:57;94754.69;;;25.44;52.56
11971;BME280;6045;42.682;23.294;2023-05-31T09:51:24;94751.78;;;25.01;52.66
11971;BME280;6045;42.682;23.294;2023-05-31T09:53:53;94755.34;;;24.71;54.70
11971;BME280;6045;42.682;23.294;2023-05-31T09:56:22;94744.97;;;24.51;54.87
11971;BME280;6045;42.682;23.294;2023-05-31T09:58:50;94755.34;;;24.71;52.21
11971;BME280;6045;42.682;23.294;2023-05-31T10:01:18;94747.66;;;25.12;52.48
11971;BME280;6045;42.682;23.294;2023-05-31T10:03:47;94748.69;;;25.42;51.69
11971;BME280;6045;42.682;23.294;2023-05-31T10:06:15;94756.63;;;25.52;50.70
11971;BME280;6045;42.682;23.294;2023-05-31T10:08:43;94764.50;;;25.45;51.15
11971;BME280;6045;42.682;23.294;2023-05-31T10:11:11;94754.78;;;25.22;52.11
11971;BME280;6045;42.682;23.294;2023-05-31T10:13:42;94742.00;;;25.00;52.59
11971;BME280;6045;42.682;23.294;2023-05-31T10:16:10;94742.00;;;25.00;53.52
11971;BME280;6045;42.682;23.294;2023-05-31T10:18:42;94748.63;;;25.08;53.38
11971;BME280;6045;42.682;23.294;2023-05-31T10:21:17;94742.34;;;25.07;52.88
11971;BME280;6045;42.682;23.294;2023-05-31T10:23:55;94742.97;;;24.74;54.29
11971;BME280;6045;42.682;23.294;2023-05-31T10:26:28;94733.78;;;24.61;53.05
11971;BME280;6045;42.682;23.294;2023-05-31T10:29:05;94734.50;;;24.44;54.35
11971;BME280;6045;42.682;23.294;2023-05-31T10:31:39;94730.69;;;24.54;54.50
11971;BME280;6045;42.682;23.294;2023-05-31T10:34:14;94721.44;;;24.41;54.68
11971;BME280;6045;42.682;23.294;2023-05-31T10:36:45;94723.84;;;24.43;55.17
11971;BME280;6045;42.682;23.294;2023-05-31T10:39:19;94735.63;;;24.52;55.54
11971;BME280;6045;42.682;23.294;2023-05-31T10:41:55;94731.31;;;24.60;55.17
11971;BME280;6045;42.682;23.294;2023-05-31T10:44:30;94732.03;;;24.74;54.65
11971;BME280;6045;42.682;23.294;2023-05-31T10:47:01;94732.75;;;24.88;52.57
11971;BME280;6045;42.682;23.294;2023-05-31T10:49:33;94737.34;;;25.01;50.70
11971;BME280;6045;42.682;23.294;2023-05-31T10:52:05;94735.19;;;24.89;51.77
11971;BME280;6045;42.682;23.294;2023-05-31T10:54:33;94731.44;;;24.77;52.79
11971;BME280;6045;42.682;23.294;2023-05-31T10:57:03;94737.34;;;24.70;51.81
11971;BME280;6045;42.682;23.294;2023-05-31T10:59:39;94736.09;;;24.76;50.76
11971;BME280;6045;42.682;23.294;2023-05-31T11:02:08;94739.03;;;24.27;53.30
11971;BME280;6045;42.682;23.294;2023-05-31T11:04:35;94730.72;;;24.32;52.38
11971;BME280;6045;42.682;23.294;2023-05-31T11:07:13;94728.44;;;24.25;53.94
11971;BME280;6045;42.682;23.294;2023-05-31T11:09:54;94728.25;;;24.92;53.14
11971;BME280;6045;42.682;23.294;2023-05-31T11:12:36;94719.22;;;25.31;51.40
11971;BME280;6045;42.682;23.294;2023-05-31T11:15:05;94718.47;;;25.56;52.51
11971;BME280;6045;42.682;23.294;2023-05-31T11:17:39;94706.56;;;25.86;52.60
11971;BME280;6045;42.682;23.294;2023-05-31T11:20:14;94711.06;;;25.99;52.31
11971;BME280;6045;42.682;23.294;2023-05-31T11:22:42;94712.19;;;26.15;50.69
11971;BME280;6045;42.682;23.294;2023-05-31T11:25:17;94706.47;;;26.46;50.72
11971;BME280;6045;42.682;23.294;2023-05-31T11:27:46;94701.41;;;26.65;48.89
11971;BME280;6045;42.682;23.294;2023-05-31T11:30:15;94698.72;;;26.48;47.76
11971;BME280;6045;42.682;23.294;2023-05-31T11:32:58;94705.25;;;26.09;48.99
11971;BME280;6045;42.682;23.294;2023-05-31T11:35:25;94700.56;;;25.41;50.17
11971;BME280;6045;42.682;23.294;2023-05-31T11:38:05;94686.03;;;25.24;52.05
11971;BME280;6045;42.682;23.294;2023-05-31T11:40:33;94689.88;;;25.05;52.39
11971;BME280;6045;42.682;23.294;2023-05-31T11:43:07;94688.16;;;25.44;54.87
11971;BME280;6045;42.682;23.294;2023-05-31T11:45:40;94677.06;;;25.74;49.37
11971;BME280;6045;42.682;23.294;2023-05-31T11:48:37;94673.47;;;26.08;49.63
11971;BME280;6045;42.682;23.294;2023-05-31T11:51:05;94675.75;;;25.89;48.86
11971;BME280;6045;42.682;23.294;2023-05-31T11:53:32;94674.81;;;25.51;50.00
11971;BME280;6045;42.682;23.294;2023-05-31T11:55:59;94686.50;;;25.17;52.19
11971;BME280;6045;42.682;23.294;2023-05-31T11:58:27;94676.97;;;24.89;53.39
11971;BME280;6045;42.682;23.294;2023-05-31T12:00:58;94674.41;;;24.62;54.74
11971;BME280;6045;42.682;23.294;2023-05-31T12:03:27;94683.66;;;24.13;54.76
11971;BME280;6045;42.682;23.294;2023-05-31T12:05:56;94686.06;;;24.14;55.04
11971;BME280;6045;42.682;23.294;2023-05-31T12:08:24;94685.19;;;24.05;54.92
11971;BME280;6045;42.682;23.294;2023-05-31T12:10:51;94684.38;;;24.27;55.39
11971;BME280;6045;42.682;23.294;2023-05-31T12:13:24;94693.16;;;24.15;56.81
11971;BME280;6045;42.682;23.294;2023-05-31T12:15:55;94682.16;;;23.85;56.23
11971;BME280;6045;42.682;23.294;2023-05-31T12:18:22;94694.88;;;23.45;56.41
11971;BME280;6045;42.682;23.294;2023-05-31T12:20:50;94692.56;;;23.38;57.42
11971;BME280;6045;42.682;23.294;2023-05-31T12:23:17;94690.56;;;23.17;58.37
11971;BME280;6045;42.682;23.294;2023-05-31T12:25:46;94685.22;;;23.11;59.93
11971;BME280;6045;42.682;23.294;2023-05-31T12:28:13;94682.66;;;22.79;56.61
11971;BME280;6045;42.682;23.294;2023-05-31T12:30:44;94668.91;;;22.71;55.96
11971;BME280;6045;42.682;23.294;2023-05-31T12:33:12;94678.31;;;22.78;56.66
11971;BME280;6045;42.682;23.294;2023-05-31T12:35:40;94682.66;;;22.79;56.98
11971;BME280;6045;42.682;23.294;2023-05-31T12:38:07;94679.63;;;22.81;58.08
11971;BME280;6045;42.682;23.294;2023-05-31T12:40:36;94677.22;;;22.79;60.40
11971;BME280;6045;42.682;23.294;2023-05-31T12:43:04;94665.97;;;22.94;61.60
11971;BME280;6045;42.682;23.294;2023-05-31T12:45:32;94672.31;;;23.03;60.26
11971;BME280;6045;42.682;23.294;2023-05-31T12:47:58;94668.38;;;23.09;59.43
11971;BME280;6045;42.682;23.294;2023-05-31T12:50:29;94671.50;;;23.03;60.56
11971;BME280;6045;42.682;23.294;2023-05-31T12:52:57;94679.78;;;23.11;61.27
11971;BME280;6045;42.682;23.294;2023-05-31T12:55:24;94675.66;;;23.00;63.37
11971;BME280;6045;42.682;23.294;2023-05-31T12:57:51;94678.91;;;22.75;65.51
11971;BME280;6045;42.682;23.294;2023-05-31T13:00:18;94678.28;;;22.37;68.12
11971;BME280;6045;42.682;23.294;2023-05-31T13:02:45;94687.88;;;21.70;68.20
11971;BME280;6045;42.682;23.294;2023-05-31T13:05:12;94691.09;;;21.22;69.89
11971;BME280;6045;42.682;23.294;2023-05-31T13:07:40;94695.00;;;20.92;73.15
11971;BME280;6045;42.682;23.294;2023-05-31T13:10:07;94686.69;;;20.65;73.66
11971;BME280;6045;42.682;23.294;2023-05-31T13:12:35;94686.69;;;20.65;77.53
11971;BME280;6045;42.682;23.294;2023-05-31T13:15:03;94685.66;;;20.61;78.41
11971;BME280;6045;42.682;23.294;2023-05-31T13:17:30;94690.78;;;20.38;80.84
11971;BME280;6045;42.682;23.294;2023-05-31T13:19:58;94692.69;;;20.09;77.84
11971;BME280;6045;42.682;23.294;2023-05-31T13:22:25;94686.59;;;19.94;79.59
11971;BME280;6045;42.682;23.294;2023-05-31T13:24:53;94696.22;;;19.81;78.65
11971;BME280;6045;42.682;23.294;2023-05-31T13:27:20;94685.91;;;19.49;76.83
11971;BME280;6045;42.682;23.294;2023-05-31T13:29:46;94700.94;;;19.27;76.65
11971;BME280;6045;42.682;23.294;2023-05-31T13:32:13;94735.31;;;17.88;82.45
11971;BME280;6045;42.682;23.294;2023-05-31T13:34:40;94731.44;;;17.08;77.80
11971;BME280;6045;42.682;23.294;2023-05-31T13:37:07;94700.31;;;16.71;81.79
11971;BME280;6045;42.682;23.294;2023-05-31T13:39:33;94692.72;;;16.68;86.71
11971;BME280;6045;42.682;23.294;2023-05-31T13:42:01;94686.28;;;16.74;90.44
11971;BME280;6045;42.682;23.294;2023-05-31T13:44:28;94677.97;;;16.90;95.58
11971;BME280;6045;42.682;23.294;2023-05-31T13:46:55;94682.56;;;17.10;100.00
11971;BME280;6045;42.682;23.294;2023-05-31T13:49:22;94680.69;;;17.10;99.01
11971;BME280;6045;42.682;23.294;2023-05-31T13:51:48;94689.31;;;17.13;94.64
11971;BME280;6045;42.682;23.294;2023-05-31T13:54:15;94692.03;;;17.18;93.69
11971;BME280;6045;42.682;23.294;2023-05-31T13:56:42;94699.59;;;17.16;90.44
11971;BME280;6045;42.682;23.294;2023-05-31T13:59:10;94706.88;;;17.20;90.03
11971;BME280;6045;42.682;23.294;2023-05-31T14:01:37;94703.94;;;17.22;92.06
11971;BME280;6045;42.682;23.294;2023-05-31T14:04:03;94705.81;;;17.31;96.66
11971;BME280;6045;42.682;23.294;2023-05-31T14:06:30;94699.06;;;17.19;94.48
11971;BME280;6045;42.682;23.294;2023-05-31T14:08:57;94692.31;;;17.31;96.84
11971;BME280;6045;42.682;23.294;2023-05-31T14:11:24;94687.72;;;17.42;95.04
11971;BME280;6045;42.682;23.294;2023-05-31T14:13:52;94682.63;;;17.65;95.71
11971;BME280;6045;42.682;23.294;2023-05-31T14:16:21;94685.03;;;17.67;95.66
11971;BME280;6045;42.682;23.294;2023-05-31T14:18:47;94680.97;;;17.64;95.62
11971;BME280;6045;42.682;23.294;2023-05-31T14:21:14;94683.69;;;17.59;96.12
11971;BME280;6045;42.682;23.294;2023-05-31T14:23:41;94692.59;;;17.55;97.91
11971;BME280;6045;42.682;23.294;2023-05-31T14:26:07;94685.84;;;17.57;99.26
11971;BME280;6045;42.682;23.294;2023-05-31T14:28:34;94680.72;;;17.61;98.89
11971;BME280;6045;42.682;23.294;2023-05-31T14:31:01;94687.47;;;17.68;97.66
11971;BME280;6045;42.682;23.294;2023-05-31T14:33:29;94683.69;;;17.59;96.08